Time;durP1;ratioP1;P1;durP2;ratioP2;P2;SDS_P1;SDS_P2;PMS_P1;PMS_P2;Temp;Humidity;BMP_temperature;BMP_pressure;BME280_temperature;BME280_humidity;BME280_pressure;Samples;Min_cycle;Max_cycle;Signal;HPM_P1;HPM_P2
2023/08/28 00:03:31;;;;;;;10.00;4.32;;;;;;;26.59;100.00;100436.34;20914621;28;20147;-72
2023/08/28 00:13:54;;;;;;;10.75;3.47;;;;;;;26.64;100.00;100433.38;20984938;28;20420;-72
2023/08/28 00:24:18;;;;;;;7.05;3.70;;;;;;;26.69;97.85;100432.16;20973088;28;20094;-71
2023/08/28 00:34:40;;;;;;;9.98;4.20;;;;;;;26.79;93.21;100411.72;20967130;28;20071;-72
2023/08/28 00:45:06;;;;;;;7.55;3.45;;;;;;;26.86;90.83;100396.84;20955069;28;20414;-72
2023/08/28 00:55:30;;;;;;;10.55;3.60;;;;;;;26.82;88.58;100389.88;20953822;28;20053;-72
2023/08/28 01:06:05;;;;;;;7.18;3.50;;;;;;;26.74;86.75;100392.13;20957988;28;20056;-72
2023/08/28 01:16:29;;;;;;;8.35;3.60;;;;;;;26.69;83.50;100377.13;20968344;28;20502;-72
2023/08/28 01:26:53;;;;;;;6.38;3.40;;;;;;;26.63;78.77;100374.75;20910087;28;20045;-72
2023/08/28 01:37:20;;;;;;;9.10;3.55;;;;;;;26.65;69.67;100379.09;20950140;28;20056;-71
2023/08/28 01:47:45;;;;;;;7.87;2.83;;;;;;;26.64;68.72;100398.19;20928539;28;20048;-72
2023/08/28 01:58:07;;;;;;;6.95;3.25;;;;;;;26.61;71.89;100396.50;20948411;28;20048;-72
2023/08/28 02:08:33;;;;;;;8.43;3.42;;;;;;;26.56;77.14;100387.78;20961946;28;20487;-72
2023/08/28 02:18:58;;;;;;;6.03;3.25;;;;;;;26.49;81.45;100389.06;20946517;28;20056;-72
2023/08/28 02:29:23;;;;;;;7.70;3.70;;;;;;;26.47;84.88;100391.00;20918594;28;20807;-72
2023/08/28 02:39:46;;;;;;;6.65;3.60;;;;;;;26.43;88.47;100387.59;20946836;28;20048;-71
2023/08/28 02:50:11;;;;;;;11.02;3.78;;;;;;;26.36;91.16;100402.44;20958321;28;20052;-72
2023/08/28 03:00:34;;;;;;;11.45;4.22;;;;;;;26.39;94.07;100398.66;20949012;28;20049;-72
2023/08/28 03:10:58;;;;;;;9.60;4.35;;;;;;;26.36;96.77;100407.84;20949547;28;20094;-72
2023/08/28 03:21:21;;;;;;;9.00;4.03;;;;;;;26.32;99.58;100405.41;20990314;28;20057;-72
2023/08/28 03:31:45;;;;;;;7.00;4.00;;;;;;;26.19;100.00;100397.88;20944548;28;20152;-72
2023/08/28 03:42:09;;;;;;;8.48;4.20;;;;;;;26.13;100.00;100402.75;20947910;28;20044;-71
2023/08/28 03:52:34;;;;;;;9.02;4.03;;;;;;;26.06;100.00;100420.28;20943638;28;20049;-72
2023/08/28 04:02:58;;;;;;;8.10;3.85;;;;;;;26.13;100.00;100440.66;20954207;28;20045;-72
2023/08/28 04:13:22;;;;;;;8.07;3.95;;;;;;;26.30;100.00;100453.31;20956356;28;20509;-72
2023/08/28 04:23:46;;;;;;;8.65;4.05;;;;;;;26.59;100.00;100458.00;20950340;28;20824;-72
2023/08/28 04:34:10;;;;;;;10.13;4.00;;;;;;;27.00;100.00;100471.09;20946952;28;20819;-72
2023/08/28 04:44:33;;;;;;;7.10;3.55;;;;;;;27.50;100.00;100460.91;20952638;28;20040;-72
2023/08/28 04:54:59;;;;;;;7.45;4.00;;;;;;;28.04;100.00;100466.69;20980352;28;20583;-72
2023/08/28 05:05:21;;;;;;;11.90;4.47;;;;;;;28.65;100.00;100460.19;20957436;28;20102;-73
2023/08/28 05:15:47;;;;;;;9.73;4.95;;;;;;;28.81;100.00;100464.56;20958146;28;20080;-73
2023/08/28 05:26:09;;;;;;;8.50;4.82;;;;;;;28.85;100.00;100463.38;20956012;28;20052;-73
2023/08/28 05:36:34;;;;;;;7.38;4.35;;;;;;;29.85;100.00;100453.03;20966289;28;20489;-72
2023/08/28 05:47:00;;;;;;;10.03;4.20;;;;;;;31.00;88.97;100462.94;20964247;28;20098;-72
2023/08/28 05:57:24;;;;;;;7.03;3.78;;;;;;;31.69;79.46;100455.06;20960737;28;20083;-73
2023/08/28 06:07:47;;;;;;;6.28;3.95;;;;;;;32.37;69.11;100469.66;20943023;28;20147;-73
2023/08/28 06:18:11;;;;;;;6.65;3.95;;;;;;;32.96;62.32;100463.09;20957852;28;20102;-73
2023/08/28 06:28:33;;;;;;;8.15;4.20;;;;;;;33.21;60.14;100469.19;20959850;28;20094;-73
2023/08/28 06:38:58;;;;;;;8.30;3.80;;;;;;;33.36;59.13;100477.09;20931544;28;20556;-73
2023/08/28 06:49:20;;;;;;;6.87;3.57;;;;;;;33.56;53.22;100482.66;20976562;28;20055;-73
2023/08/28 06:59:45;;;;;;;10.27;4.00;;;;;;;33.94;51.69;100487.59;20955425;28;20056;-73
2023/08/28 07:10:08;;;;;;;;;;;;;;;34.17;52.36;100482.88;20956795;28;20044;-74
2023/08/28 07:20:32;;;;;;;8.02;4.57;;;;;;;34.43;55.51;100472.41;20930735;28;19920;-75
2023/08/28 07:30:57;;;;;;;8.70;4.17;;;;;;;34.39;54.18;100462.72;20957967;28;20084;-74
2023/08/28 07:41:21;;;;;;;8.50;3.97;;;;;;;34.83;49.87;100479.84;20947906;28;20062;-73
2023/08/28 07:51:44;;;;;;;7.13;3.67;;;;;;;35.16;46.37;100469.41;20954554;28;20057;-72
2023/08/28 08:02:08;;;;;;;7.82;3.47;;;;;;;35.20;42.17;100475.47;20961025;28;20605;-74
2023/08/28 08:12:38;;;;;;;7.72;3.22;;;;;;;35.32;41.46;100477.09;20968151;28;20055;-73
2023/08/28 08:23:05;;;;;;;7.43;3.45;;;;;;;35.60;40.70;100482.78;20959505;28;20082;-74
2023/08/28 08:33:28;;;;;;;6.38;3.92;;;;;;;35.68;40.86;100474.69;20986054;28;20051;-73
2023/08/28 08:43:52;;;;;;;6.80;3.78;;;;;;;36.09;40.33;100465.31;20983248;28;20154;-74
2023/08/28 08:54:18;;;;;;;;;;;;;;;36.04;39.09;100457.47;20959992;28;20488;-73
2023/08/28 09:04:44;;;;;;;8.75;3.63;;;;;;;36.25;38.20;100447.19;20968045;28;20436;-74
2023/08/28 09:15:07;;;;;;;7.72;3.60;;;;;;;36.51;37.10;100454.78;20963678;28;20133;-73
2023/08/28 09:25:32;;;;;;;8.37;3.50;;;;;;;36.60;37.17;100456.66;20954682;28;20111;-73
2023/08/28 09:35:59;;;;;;;8.85;3.95;;;;;;;36.94;36.56;100455.06;20962354;28;20070;-74
2023/08/28 09:46:23;;;;;;;8.07;3.65;;;;;;;37.28;35.95;100452.59;20948688;28;20045;-75
2023/08/28 09:56:46;;;;;;;;;;;;;;;37.31;36.08;100449.50;20950778;28;20094;-74
2023/08/28 10:07:11;;;;;;;10.20;4.07;;;;;;;37.60;36.20;100445.69;20965874;28;19925;-74
2023/08/28 10:17:35;;;;;;;11.38;4.63;;;;;;;37.66;36.71;100448.69;20961207;28;20098;-74
2023/08/28 10:27:59;;;;;;;;;;;;;;;37.39;37.75;100451.47;20964072;28;20572;-75
2023/08/28 10:38:22;;;;;;;9.82;4.20;;;;;;;37.32;39.01;100455.88;20949084;28;19920;-75
2023/08/28 10:48:47;;;;;;;7.45;4.15;;;;;;;37.08;39.15;100453.69;20991199;28;20043;-74
2023/08/28 10:59:23;;;;;;;9.75;3.97;;;;;;;36.57;39.61;100451.44;20954206;28;20052;-74
2023/08/28 11:09:48;;;;;;;9.97;4.37;;;;;;;36.17;40.86;100463.56;20933426;28;20442;-75
2023/08/28 11:20:12;;;;;;;7.83;4.40;;;;;;;35.96;41.03;100438.13;20963039;28;20293;-73
2023/08/28 11:30:36;;;;;;;9.50;4.38;;;;;;;36.06;42.84;100460.94;20870521;28;20057;-72
2023/08/28 11:41:04;;;;;;;7.43;3.87;;;;;;;36.05;40.82;100458.34;20893542;28;20055;-73
2023/08/28 11:51:28;;;;;;;9.52;4.10;;;;;;;36.08;39.46;100469.06;20882157;28;20069;-75
2023/08/28 12:01:50;;;;;;;9.82;3.65;;;;;;;35.86;37.79;100486.72;20864941;28;20044;-74
2023/08/28 12:12:16;;;;;;;11.02;4.15;;;;;;;35.84;37.16;100453.88;20899562;28;20521;-74
2023/08/28 12:22:43;;;;;;;8.60;3.78;;;;;;;35.82;36.89;100435.81;20879841;28;20091;-71
2023/08/28 12:33:08;;;;;;;7.97;3.42;;;;;;;35.61;36.27;100452.41;20960145;28;20040;-74
2023/08/28 12:43:36;;;;;;;7.78;3.85;;;;;;;35.21;36.01;100446.16;20954363;28;20389;-75
2023/08/28 12:54:02;;;;;;;9.38;3.45;;;;;;;34.78;34.80;100434.50;20963070;28;20129;-75
2023/08/28 13:04:25;;;;;;;8.15;3.33;;;;;;;34.67;34.90;100440.03;20966314;28;20489;-74
2023/08/28 13:14:49;;;;;;;12.98;3.42;;;;;;;34.34;35.98;100424.72;20973141;28;20090;-74
2023/08/28 13:25:12;;;;;;;8.35;3.53;;;;;;;34.30;36.51;100416.91;20957118;28;20056;-74
2023/08/28 13:35:36;;;;;;;6.70;3.25;;;;;;;34.16;36.86;100420.84;20990583;28;20040;-74
2023/08/28 13:45:58;;;;;;;7.80;3.45;;;;;;;33.77;37.75;100403.28;20941591;28;20122;-73
2023/08/28 13:56:24;;;;;;;10.13;3.92;;;;;;;33.78;37.94;100380.38;20941247;28;20056;-73
2023/08/28 14:06:46;;;;;;;6.30;3.40;;;;;;;33.98;37.24;100392.31;20919663;28;20114;-73
2023/08/28 14:22:18;;;;;;;7.55;3.20;;;;;;;34.23;35.43;100377.34;20912287;28;20401;-73
2023/08/28 14:32:41;;;;;;;7.47;3.65;;;;;;;33.87;34.82;100368.59;20964212;28;20071;-73
2023/08/28 14:43:05;;;;;;;6.90;3.25;;;;;;;33.62;35.26;100355.28;20997825;28;20053;-72
2023/08/28 14:53:27;;;;;;;8.02;3.33;;;;;;;33.14;34.90;100363.97;21017238;28;20481;-73
2023/08/28 15:03:51;;;;;;;6.43;2.85;;;;;;;32.58;34.85;100351.38;20977122;28;20053;-72
2023/08/28 15:14:14;;;;;;;8.18;4.25;;;;;;;32.23;35.60;100363.31;20974538;28;20076;-72
2023/08/28 15:24:39;;;;;;;6.32;3.33;;;;;;;31.91;36.32;100365.88;20960601;28;20110;-72
2023/08/28 15:35:03;;;;;;;8.35;3.70;;;;;;;31.74;36.95;100373.66;20945449;28;20049;-72
2023/08/28 15:45:27;;;;;;;9.32;3.67;;;;;;;31.43;37.95;100353.34;20890365;28;20079;-73
2023/08/28 15:55:53;;;;;;;7.40;4.18;;;;;;;31.24;39.12;100367.53;20916933;28;20493;-73
2023/08/28 16:06:18;;;;;;;7.85;3.90;;;;;;;31.08;40.04;100356.03;20922045;28;20045;-73
2023/08/28 16:16:40;;;;;;;7.45;4.15;;;;;;;30.78;41.99;100365.53;20913636;28;20061;-73
2023/08/28 16:27:05;;;;;;;6.32;3.42;;;;;;;30.39;41.31;100357.53;20892123;28;20049;-73
2023/08/28 16:37:27;;;;;;;8.77;4.15;;;;;;;30.13;41.61;100353.09;20936231;28;20044;-74
2023/08/28 16:47:52;;;;;;;10.70;4.45;;;;;;;29.97;42.25;100351.47;20951251;28;20052;-74
2023/08/28 16:58:14;;;;;;;7.18;4.18;;;;;;;29.73;43.34;100361.34;20946923;28;20076;-75
2023/08/28 17:08:39;;;;;;;11.70;4.57;;;;;;;29.47;44.28;100362.31;20900814;28;20044;-74
2023/08/28 17:19:01;;;;;;;10.38;4.50;;;;;;;29.28;44.61;100352.63;20922905;28;20098;-74
2023/08/28 17:29:25;;;;;;;9.48;4.38;;;;;;;29.21;44.54;100348.59;20896782;28;20106;-73
2023/08/28 17:39:48;;;;;;;7.57;4.53;;;;;;;29.05;44.75;100339.75;20894597;28;20122;-74
2023/08/28 17:50:12;;;;;;;9.65;5.22;;;;;;;28.91;45.53;100358.81;20932001;28;20040;-74
2023/08/28 18:00:35;;;;;;;11.43;5.00;;;;;;;28.68;46.35;100351.31;20902080;28;20441;-73
2023/08/28 18:10:58;;;;;;;8.88;5.45;;;;;;;28.58;46.90;100366.44;20911499;28;20049;-73
2023/08/28 18:21:22;;;;;;;9.88;5.97;;;;;;;28.40;47.85;100376.69;20919744;28;20053;-74
2023/08/28 18:31:48;;;;;;;10.15;5.15;;;;;;;28.29;48.74;100385.50;20903797;28;20041;-74
2023/08/28 18:42:10;;;;;;;10.90;4.90;;;;;;;28.07;49.49;100395.94;20858719;28;20460;-74
2023/08/28 18:52:35;;;;;;;14.00;5.00;;;;;;;27.91;50.75;100398.72;20898955;28;20036;-74
2023/08/28 19:02:58;;;;;;;12.27;5.57;;;;;;;27.85;51.51;100395.53;20951398;28;20432;-73
2023/08/28 19:13:22;;;;;;;8.10;4.88;;;;;;;27.82;51.40;100396.59;20923851;28;20053;-73
2023/08/28 19:23:44;;;;;;;13.68;5.10;;;;;;;27.65;51.66;100384.06;20918916;28;20094;-73
2023/08/28 19:34:09;;;;;;;10.57;4.70;;;;;;;27.57;50.67;100380.94;20864585;28;20049;-74
2023/08/28 19:44:31;;;;;;;8.57;4.50;;;;;;;27.42;50.45;100389.97;20886581;28;20509;-73
2023/08/28 19:54:56;;;;;;;8.10;4.30;;;;;;;27.18;49.58;100358.88;20876817;28;20144;-74
2023/08/28 20:05:20;;;;;;;7.28;4.50;;;;;;;27.19;48.49;100366.06;20879411;28;20135;-74
2023/08/28 20:15:49;;;;;;;6.45;3.67;;;;;;;27.20;47.54;100359.69;20977347;28;20049;-74
2023/08/28 20:26:12;;;;;;;9.65;3.75;;;;;;;27.13;46.89;100351.03;20899330;28;20401;-73
2023/08/28 20:36:36;;;;;;;5.47;3.30;;;;;;;27.13;45.93;100352.88;20888390;28;20049;-74
2023/08/28 20:46:59;;;;;;;9.60;4.00;;;;;;;26.99;46.30;100348.28;20850034;28;20049;-74
2023/08/28 20:57:23;;;;;;;7.70;3.97;;;;;;;26.84;46.70;100349.16;20900001;28;20103;-74
2023/08/28 21:07:46;;;;;;;6.22;3.70;;;;;;;26.70;47.42;100346.38;20897051;28;20047;-74
2023/08/28 21:18:09;;;;;;;7.78;4.25;;;;;;;26.69;47.43;100345.50;20921135;28;20048;-74
2023/08/28 21:28:34;;;;;;;5.88;3.35;;;;;;;26.84;47.34;100332.91;21009794;28;20049;-73
2023/08/28 21:38:58;;;;;;;5.32;3.60;;;;;;;26.86;47.62;100330.94;20915326;28;20045;-74
2023/08/28 21:49:20;;;;;;;7.97;3.97;;;;;;;26.89;47.96;100322.69;20907897;28;20044;-74
2023/08/28 22:00:04;;;;;;;8.40;4.75;;;;;;;26.92;48.12;100317.06;20927307;28;20073;-74
2023/08/28 22:10:45;;;;;;;8.50;5.00;;;;;;;26.94;48.35;100307.03;20908111;28;20183;-74
2023/08/28 22:21:22;;;;;;;8.13;4.88;;;;;;;26.90;48.34;100310.91;20888528;28;20236;-75
2023/08/28 22:31:46;;;;;;;10.38;4.60;;;;;;;26.85;48.63;100302.09;20918770;28;20549;-73
2023/08/28 22:42:10;;;;;;;7.15;4.65;;;;;;;26.76;49.07;100302.66;20892601;28;20048;-73
2023/08/28 22:52:32;;;;;;;8.43;5.00;;;;;;;26.65;49.43;100283.47;20896760;28;20053;-74
2023/08/28 23:02:57;;;;;;;9.70;5.75;;;;;;;26.47;50.03;100288.97;20905312;28;20137;-73
2023/08/28 23:13:19;;;;;;;9.63;6.10;;;;;;;26.37;50.80;100282.34;20925981;28;20444;-74
2023/08/28 23:23:44;;;;;;;7.60;5.65;;;;;;;26.31;51.88;100277.28;20913871;28;20053;-74
2023/08/28 23:34:06;;;;;;;10.82;6.20;;;;;;;26.27;52.34;100267.59;20917657;28;20064;-74
2023/08/28 23:44:31;;;;;;;12.05;7.05;;;;;;;26.24;53.59;100266.88;20930974;28;20390;-74
2023/08/28 23:54:54;;;;;;;12.93;7.38;;;;;;;26.19;54.87;100261.69;20960691;28;20166;-74
